• Join FlightAware (Why Join?)
  • Login
  • US Flag 
03:28PM EDT


 

Airport Tracker/Info


-or-


 

Live Flight TrackerFlight Track Log ✈ DAL1082 ✈ 05-Aug-2013 ✈ CYVR - KSLC

Flight Track Log - Related Links

Times and Time Zones

All times are in EDT time to prevent confusion due to time zone crossing. See the DAL1082 flight status page for this flight to view local times or setup timezone preferences in your user account.

Time Position Orientation Groundspeed Altitude Reporting Facility
EDT Latitude Longitude Course Direction KTS MPH feet Rate Location/Type
04:52PM 49.1667 -123.2333 132° Southeast 160 184 1,500  Level Vancouver Center
04:53PM 49.1667 -123.3167 270° West 170 196 3,500 1,560 Climbing Vancouver Center
04:54PM 49.0038 -122.7154 111° Southeast  Level FlightAware Approximate
04:54PM 49.1000 -123.2833 162° South 260 299 4,700  Level Vancouver Center
04:55PM 48.9333 -122.5666 127° Southeast  Level FlightAware Approximate
04:55PM 49.0333 -123.2333 154° Southeast 280 322 8,000  Level Vancouver Center
04:56PM 48.8590 -122.4180 127° Southeast  Level FlightAware Approximate
04:56PM 49.0000 -123.1333 117° Southeast 300 345 10,400  Level Vancouver Center
04:57PM 48.7984 -122.2639 132° Southeast  Level FlightAware Approximate
04:57PM 48.9833 -122.9833 100° East 370 426 11,700  Level Vancouver Center
04:58PM 48.9667 -122.8333 100° East 380 437 14,200 2,340 Climbing Vancouver Center
04:59PM 48.9500 -122.6500 98° East 390 449 16,400 1,500 Climbing Vancouver Center
05:00PM 48.9333 -122.4833 99° East 420 483 17,200 1,020 Climbing Vancouver Center
05:01PM 48.8667 -122.3333 124° Southeast 450 518 18,500 1,440 Climbing Vancouver Center
05:02PM 48.7833 -122.1833 130° Southeast 470 541 20,100 1,440 Climbing Vancouver Center
05:03PM 48.6833 -122.0333 135° Southeast 480 552 21,400 1,260 Climbing Vancouver Center
05:04PM 48.5833 -121.8833 135° Southeast 490 564 22,700 1,140 Climbing Vancouver Center
05:05PM 48.4833 -121.7333 135° Southeast 500 575 23,700 960 Climbing Vancouver Center
05:06PM 48.4000 -121.5833 130° Southeast 500 575 24,700 1,140 Climbing Vancouver Center
05:07PM 48.3000 -121.4167 132° Southeast 510 587 26,000 1,200 Climbing Vancouver Center
05:08PM 48.2000 -121.2667 135° Southeast 510 587 27,100 1,200 Climbing Vancouver Center
05:09PM 48.0833 -121.1333 143° Southeast 510 587 28,400 1,080 Climbing Vancouver Center
05:09PM 48.0606 -121.0808 123° Southeast 499 574 28,800 900 Climbing Seattle Center
05:10PM 47.9406 -120.9703 148° Southeast 506 582 29,800 960 Climbing Seattle Center
05:11PM 47.8217 -120.8614 148° Southeast 506 582 30,800 900 Climbing Seattle Center
05:12PM 47.7169 -120.7200 138° Southeast 504 580 31,700 900 Climbing Seattle Center
05:13PM 47.6214 -120.5742 134° Southeast 500 575 32,700 780 Climbing Seattle Center
05:14PM 47.5264 -120.4289 134° Southeast 496 571 33,400 780 Climbing Seattle Center
05:15PM 47.4292 -120.2847 135° Southeast 496 571 34,300 780 Climbing Seattle Center
05:16PM 47.3344 -120.1422 134° Southeast 489 563 35,000 780 Climbing Seattle Center
05:17PM 47.2192 -119.9711 135° Southeast 491 565 35,900 600 Climbing Seattle Center
05:18PM 47.1253 -119.8322 135° Southeast 484 557 36,300 420 Climbing Seattle Center
05:19PM 47.0306 -119.6933 135° Southeast 483 556 36,800 300 Climbing Seattle Center
05:20PM 46.9364 -119.5558 135° Southeast 482 555 37,000 60 Climbing Seattle Center
05:21PM 46.8422 -119.4178 135° Southeast 482 555 37,000  Level Seattle Center
05:23PM 46.7469 -119.2808 135° Southeast 481 554 37,000  Level Seattle Center
05:24PM 46.6522 -119.1444 135° Southeast 480 552 37,000  Level Seattle Center
05:25PM 46.5567 -119.0083 136° Southeast 481 554 37,000 -60 Level Seattle Center
05:26PM 46.4650 -118.8769 135° Southeast 477 549 36,900  Descending Seattle Center
05:27PM 46.3514 -118.7175 136° Southeast 475 547 37,000  Climbing Seattle Center
05:28PM 46.2561 -118.5836 136° Southeast 480 552 37,000  Level Seattle Center
05:29PM 46.1606 -118.4497 136° Southeast 481 554 37,000  Level Seattle Center
05:30PM 46.0636 -118.3142 136° Southeast 485 558 37,000 -60 Level Seattle Center
05:31PM 45.9675 -118.1808 136° Southeast 484 557 36,900 -60 Descending Seattle Center
05:32PM 45.8708 -118.0489 136° Southeast 481 554 36,900  Level Seattle Center
05:33PM 45.7742 -117.9156 136° Southeast 483 556 36,900  Level Seattle Center
05:34PM 45.6714 -117.7758 136° Southeast 483 556 37,000  Climbing Seattle Center
05:35PM 45.5736 -117.6433 136° Southeast 483 556 37,000  Level Seattle Center
05:36PM 45.4761 -117.5114 136° Southeast 484 557 37,000  Level Seattle Center
05:37PM 45.3714 -117.3694 136° Southeast 480 552 37,000  Level Seattle Center
05:38PM 45.2794 -117.2478 137° Southeast 473 544 37,000  Level Seattle Center
05:39PM 45.1706 -117.1033 137° Southeast 479 551 37,000  Level Seattle Center
05:40PM 45.0769 -116.9803 137° Southeast 479 551 37,000  Level Seattle Center
05:41PM 44.9847 -116.8569 137° Southeast 477 549 37,000  Level Seattle Center
05:41PM 44.9214 -116.7750 137° Southeast 482 555 37,000  Level Salt Lake Center
05:43PM 44.8133 -116.6311 137° Southeast 479 551 37,000  Level Salt Lake Center
05:44PM 44.7200 -116.5103 137° Southeast 476 548 37,000  Level Salt Lake Center
05:45PM 44.6108 -116.3681 137° Southeast 481 554 37,000  Level Salt Lake Center
05:46PM 44.5172 -116.2478 137° Southeast 479 551 37,000  Level Salt Lake Center
05:47PM 44.4119 -116.1119 137° Southeast 487 560 37,000  Level Salt Lake Center
05:48PM 44.3039 -115.9719 137° Southeast 480 552 37,000  Level Salt Lake Center
05:49PM 44.2089 -115.8517 138° Southeast 480 552 37,000  Level Salt Lake Center
05:50PM 44.0989 -115.7144 138° Southeast 479 551 37,000  Level Salt Lake Center
05:51PM 44.0056 -115.5969 138° Southeast 474 545 37,000  Level Salt Lake Center
05:52PM 43.8967 -115.4600 138° Southeast 474 545 37,000  Level Salt Lake Center
05:53PM 43.8019 -115.3414 138° Southeast 478 550 37,000  Level Salt Lake Center
05:54PM 43.7078 -115.2247 138° Southeast 476 548 37,000  Level Salt Lake Center
05:55PM 43.5972 -115.0897 138° Southeast 476 548 37,000  Level Salt Lake Center
05:56PM 43.5036 -114.9744 138° Southeast 472 543 37,000  Level Salt Lake Center
05:57PM 43.3936 -114.8386 138° Southeast 476 548 37,000  Level Salt Lake Center
05:58PM 43.3006 -114.7253 138° Southeast 469 540 37,000  Level Salt Lake Center
05:59PM 43.1911 -114.5928 139° Southeast 469 540 37,000  Level Salt Lake Center
06:00PM 43.0975 -114.4803 139° Southeast 468 539 37,000  Level Salt Lake Center
06:01PM 42.9881 -114.3483 139° Southeast 470 541 37,000  Level Salt Lake Center
06:02PM 42.9031 -114.2464 139° Southeast 464 534 37,000  Level Salt Lake Center
06:03PM 42.7853 -114.1075 139° Southeast 466 536 37,000  Level Salt Lake Center
06:04PM 42.6886 -113.9928 139° Southeast 463 533 37,000 -900 Level Salt Lake Center
06:05PM 42.5908 -113.8778 139° Southeast 465 535 35,200 -1,920 Descending Salt Lake Center
06:06PM 42.4969 -113.7531 136° Southeast 472 543 33,100 -2,040 Descending Salt Lake Center
06:07PM 42.4028 -113.6256 135° Southeast 478 550 31,100 -1,980 Descending Salt Lake Center
06:08PM 42.3072 -113.5003 136° Southeast 479 551 29,100 -1,020 Descending Salt Lake Center
06:09PM 42.2125 -113.3744 135° Southeast 479 551 29,000 -60 Descending Salt Lake Center
06:10PM 42.0964 -113.2219 136° Southeast 486 559 29,000 -540 Level Salt Lake Center
06:11PM 41.9994 -113.0947 136° Southeast 488 562 27,900 -2,040 Descending Salt Lake Center
06:12PM 41.9050 -112.9703 136° Southeast 480 552 24,900 -2,880 Descending Salt Lake Center
06:13PM 41.8117 -112.8497 136° Southeast 470 541 22,100 -2,760 Descending Salt Lake Center
06:15PM 41.7242 -112.7364 136° Southeast 444 511 19,300 -2,580 Descending Salt Lake Center
06:15PM 41.6575 -112.6356 131° Southeast 431 496 17,600 -1,500 Descending Salt Lake Center
06:16PM 41.5822 -112.5433 137° Southeast 400 460 16,800 -1,320 Descending Salt Lake Center
06:17PM 41.4950 -112.4353 137° Southeast 397 457 15,000 -1,860 Descending Salt Lake Center
06:18PM 41.4133 -112.3456 141° Southeast 386 444 12,900 -1,620 Descending Salt Lake Center
06:19PM 41.3328 -112.2500 138° Southeast 388 447 11,800 -1,080 Descending Salt Lake Center
06:20PM 41.2417 -112.1469 140° Southeast 396 456 10,800 -960 Descending Salt Lake Center
06:21PM 41.1725 -112.0678 139° Southeast 389 448 10,000 -600 Descending Salt Lake Center
06:22PM 41.1408 -112.0411 148° Southeast 361 415 10,000 -540 Level Salt Lake Center
06:22PM 41.0900 -112.0306 171° South 289 333 9,500 -1,200 Descending Salt Lake Center
06:23PM 41.0525 -112.0267 176° South 269 310 8,800 -1,500 Descending Salt Lake Center
06:23PM 41.0131 -112.0225 175° South 247 284 7,900 -1,260 Descending Salt Lake Center
06:24PM 40.9558 -112.0164 175° South 231 266 6,900 -1,140 Descending Salt Lake Center
06:25PM 40.9267 -112.0133 175° South 225 259 6,300 -960 Descending Salt Lake Center
06:26PM 40.8706 -112.0069 175° South 206 237 5,400 -900 Descending Salt Lake Center
06:26PM 40.8417 -112.0042 176° South 166 191 4,900 -720 Descending Salt Lake Center
06:27PM 40.8275 -112.0011 171° South 157 181 4,700 -420 Descending Salt Lake Center
06:28PM 40.7942 -111.9958 173° South 128 147 4,300 -420 Descending Salt Lake Center